sensor_id;sensor_type;location;lat;lon;timestamp;pressure;altitude;pressure_sealevel;temperature;humidity
16525;BME280;8375;33.594;-117.718;2024-02-16T00:00:53;100611.47;;;18.01;67.26
16525;BME280;8375;33.594;-117.718;2024-02-16T00:03:22;100610.94;;;17.97;67.37
16525;BME280;8375;33.594;-117.718;2024-02-16T00:05:50;100613.00;;;17.85;67.13
16525;BME280;8375;33.594;-117.718;2024-02-16T00:08:19;100616.09;;;17.81;67.19
16525;BME280;8375;33.594;-117.718;2024-02-16T00:10:48;100617.53;;;17.75;68.87
16525;BME280;8375;33.594;-117.718;2024-02-16T00:13:17;100620.69;;;17.79;68.41
16525;BME280;8375;33.594;-117.718;2024-02-16T00:15:47;100620.94;;;17.67;69.13
16525;BME280;8375;33.594;-117.718;2024-02-16T00:18:16;100609.41;;;17.60;69.48
16525;BME280;8375;33.594;-117.718;2024-02-16T00:20:45;100620.34;;;17.55;68.92
16525;BME280;8375;33.594;-117.718;2024-02-16T00:23:14;100614.97;;;17.57;69.40
16525;BME280;8375;33.594;-117.718;2024-02-16T00:25:43;100623.28;;;17.52;68.56
16525;BME280;8375;33.594;-117.718;2024-02-16T00:28:13;100625.44;;;17.30;67.79
16525;BME280;8375;33.594;-117.718;2024-02-16T00:30:42;100624.81;;;17.37;68.79
16525;BME280;8375;33.594;-117.718;2024-02-16T00:33:12;100623.41;;;17.42;68.85
16525;BME280;8375;33.594;-117.718;2024-02-16T00:35:41;100613.72;;;17.43;70.99
16525;BME280;8375;33.594;-117.718;2024-02-16T00:38:10;100609.84;;;17.29;69.41
16525;BME280;8375;33.594;-117.718;2024-02-16T00:40:39;100620.59;;;17.18;70.21
16525;BME280;8375;33.594;-117.718;2024-02-16T00:43:17;100621.84;;;17.13;70.68
16525;BME280;8375;33.594;-117.718;2024-02-16T00:46:13;100617.88;;;17.09;69.66
16525;BME280;8375;33.594;-117.718;2024-02-16T00:49:10;100620.66;;;17.08;71.09
16525;BME280;8375;33.594;-117.718;2024-02-16T00:51:56;100628.97;;;17.03;70.83
16525;BME280;8375;33.594;-117.718;2024-02-16T00:57:41;100628.75;;;16.50;75.51
16525;BME280;8375;33.594;-117.718;2024-02-16T01:00:31;100634.78;;;16.51;76.26
16525;BME280;8375;33.594;-117.718;2024-02-16T01:03:37;100637.03;;;16.46;79.00
16525;BME280;8375;33.594;-117.718;2024-02-16T01:06:49;100631.69;;;16.37;80.04
16525;BME280;8375;33.594;-117.718;2024-02-16T01:09:36;100627.78;;;16.23;82.15
16525;BME280;8375;33.594;-117.718;2024-02-16T01:12:29;100632.75;;;16.17;84.47
16525;BME280;8375;33.594;-117.718;2024-02-16T01:15:16;100627.84;;;16.04;85.49
16525;BME280;8375;33.594;-117.718;2024-02-16T01:17:46;100634.47;;;15.98;86.39
16525;BME280;8375;33.594;-117.718;2024-02-16T01:20:17;100637.94;;;15.89;87.16
16525;BME280;8375;33.594;-117.718;2024-02-16T01:22:52;100639.16;;;15.84;87.44
16525;BME280;8375;33.594;-117.718;2024-02-16T01:25:24;100643.84;;;15.81;89.68
16525;BME280;8375;33.594;-117.718;2024-02-16T01:27:56;100643.72;;;15.73;88.75
16525;BME280;8375;33.594;-117.718;2024-02-16T01:30:30;100636.72;;;15.63;89.98
16525;BME280;8375;33.594;-117.718;2024-02-16T01:33:23;100643.47;;;15.56;90.42
16525;BME280;8375;33.594;-117.718;2024-02-16T01:36:06;100656.31;;;15.49;91.69
16525;BME280;8375;33.594;-117.718;2024-02-16T01:39:04;100654.78;;;15.17;93.77
16525;BME280;8375;33.594;-117.718;2024-02-16T01:41:50;100664.16;;;15.10;95.57
16525;BME280;8375;33.594;-117.718;2024-02-16T01:44:19;100652.72;;;15.11;97.04
16525;BME280;8375;33.594;-117.718;2024-02-16T01:46:47;100660.84;;;15.08;97.65
16525;BME280;8375;33.594;-117.718;2024-02-16T01:49:16;100656.28;;;15.00;99.71
16525;BME280;8375;33.594;-117.718;2024-02-16T01:51:45;100652.16;;;14.98;100.00
16525;BME280;8375;33.594;-117.718;2024-02-16T01:54:16;100656.41;;;14.89;100.00
16525;BME280;8375;33.594;-117.718;2024-02-16T01:56:45;100659.84;;;14.89;99.91
16525;BME280;8375;33.594;-117.718;2024-02-16T01:59:14;100665.47;;;14.85;100.00
16525;BME280;8375;33.594;-117.718;2024-02-16T02:01:42;100668.22;;;14.83;100.00
16525;BME280;8375;33.594;-117.718;2024-02-16T02:04:11;100671.31;;;14.67;100.00
16525;BME280;8375;33.594;-117.718;2024-02-16T02:06:40;100666.19;;;14.56;100.00
16525;BME280;8375;33.594;-117.718;2024-02-16T02:09:09;100674.28;;;14.52;100.00
16525;BME280;8375;33.594;-117.718;2024-02-16T02:11:39;100673.84;;;14.37;100.00
16525;BME280;8375;33.594;-117.718;2024-02-16T02:14:08;100674.91;;;14.35;100.00
16525;BME280;8375;33.594;-117.718;2024-02-16T02:16:36;100679.84;;;14.28;100.00
16525;BME280;8375;33.594;-117.718;2024-02-16T02:19:05;100684.81;;;14.31;100.00
16525;BME280;8375;33.594;-117.718;2024-02-16T02:21:33;100690.47;;;14.36;100.00
16525;BME280;8375;33.594;-117.718;2024-02-16T02:24:04;100692.06;;;14.28;100.00
16525;BME280;8375;33.594;-117.718;2024-02-16T02:26:33;100696.63;;;14.04;100.00
16525;BME280;8375;33.594;-117.718;2024-02-16T02:29:02;100693.63;;;14.09;100.00
16525;BME280;8375;33.594;-117.718;2024-02-16T02:31:31;100694.19;;;14.13;100.00
16525;BME280;8375;33.594;-117.718;2024-02-16T02:33:59;100702.59;;;14.16;100.00
16525;BME280;8375;33.594;-117.718;2024-02-16T02:36:28;100704.50;;;14.14;100.00
16525;BME280;8375;33.594;-117.718;2024-02-16T02:38:56;100710.94;;;14.10;100.00
16525;BME280;8375;33.594;-117.718;2024-02-16T02:41:27;100713.94;;;14.05;100.00
16525;BME280;8375;33.594;-117.718;2024-02-16T02:43:55;100712.28;;;14.04;100.00
16525;BME280;8375;33.594;-117.718;2024-02-16T02:46:24;100707.31;;;14.01;100.00
16525;BME280;8375;33.594;-117.718;2024-02-16T02:48:54;100710.81;;;13.90;100.00
16525;BME280;8375;33.594;-117.718;2024-02-16T02:51:22;100710.69;;;13.71;100.00
16525;BME280;8375;33.594;-117.718;2024-02-16T02:53:51;100707.16;;;13.60;100.00
16525;BME280;8375;33.594;-117.718;2024-02-16T02:56:19;100706.81;;;13.65;100.00
16525;BME280;8375;33.594;-117.718;2024-02-16T02:58:50;100708.22;;;13.69;100.00
16525;BME280;8375;33.594;-117.718;2024-02-16T03:01:18;100711.06;;;13.66;100.00
16525;BME280;8375;33.594;-117.718;2024-02-16T03:03:48;100707.50;;;13.67;100.00
16525;BME280;8375;33.594;-117.718;2024-02-16T03:06:18;100714.00;;;13.73;100.00
16525;BME280;8375;33.594;-117.718;2024-02-16T03:08:47;100709.03;;;13.70;100.00
16525;BME280;8375;33.594;-117.718;2024-02-16T03:11:15;100713.69;;;13.66;100.00
16525;BME280;8375;33.594;-117.718;2024-02-16T03:13:44;100712.13;;;13.63;100.00
16525;BME280;8375;33.594;-117.718;2024-02-16T03:16:14;100716.53;;;13.63;100.00
16525;BME280;8375;33.594;-117.718;2024-02-16T03:18:43;100715.59;;;13.64;100.00
16525;BME280;8375;33.594;-117.718;2024-02-16T03:21:14;100718.19;;;13.64;100.00
16525;BME280;8375;33.594;-117.718;2024-02-16T03:23:44;100725.88;;;13.66;100.00
16525;BME280;8375;33.594;-117.718;2024-02-16T03:26:16;100717.09;;;13.67;100.00
16525;BME280;8375;33.594;-117.718;2024-02-16T03:28:45;100722.47;;;13.65;100.00
16525;BME280;8375;33.594;-117.718;2024-02-16T03:31:20;100736.06;;;13.69;100.00
16525;BME280;8375;33.594;-117.718;2024-02-16T03:33:50;100728.81;;;13.72;100.00
16525;BME280;8375;33.594;-117.718;2024-02-16T03:36:19;100728.25;;;13.69;100.00
16525;BME280;8375;33.594;-117.718;2024-02-16T03:38:49;100742.56;;;13.74;100.00
16525;BME280;8375;33.594;-117.718;2024-02-16T03:41:20;100745.28;;;13.73;100.00
16525;BME280;8375;33.594;-117.718;2024-02-16T03:43:49;100740.81;;;13.63;100.00
16525;BME280;8375;33.594;-117.718;2024-02-16T03:46:22;100744.13;;;13.66;100.00
16525;BME280;8375;33.594;-117.718;2024-02-16T03:48:50;100749.81;;;13.71;100.00
16525;BME280;8375;33.594;-117.718;2024-02-16T03:51:19;100748.84;;;13.72;100.00
16525;BME280;8375;33.594;-117.718;2024-02-16T03:53:48;100741.47;;;13.77;100.00
16525;BME280;8375;33.594;-117.718;2024-02-16T03:56:19;100744.34;;;13.74;100.00
16525;BME280;8375;33.594;-117.718;2024-02-16T03:58:48;100746.69;;;13.77;100.00
16525;BME280;8375;33.594;-117.718;2024-02-16T04:01:16;100750.00;;;13.79;100.00
16525;BME280;8375;33.594;-117.718;2024-02-16T04:03:46;100750.97;;;13.78;100.00
16525;BME280;8375;33.594;-117.718;2024-02-16T04:06:15;100747.41;;;13.79;100.00
16525;BME280;8375;33.594;-117.718;2024-02-16T04:08:44;100740.28;;;13.81;100.00
16525;BME280;8375;33.594;-117.718;2024-02-16T04:11:12;100739.47;;;13.81;100.00
16525;BME280;8375;33.594;-117.718;2024-02-16T04:13:41;100739.31;;;13.82;100.00
16525;BME280;8375;33.594;-117.718;2024-02-16T04:16:10;100737.41;;;13.84;100.00
16525;BME280;8375;33.594;-117.718;2024-02-16T04:18:38;100730.44;;;13.85;100.00
16525;BME280;8375;33.594;-117.718;2024-02-16T04:21:09;100729.84;;;13.81;100.00
16525;BME280;8375;33.594;-117.718;2024-02-16T04:23:37;100726.16;;;13.84;100.00
16525;BME280;8375;33.594;-117.718;2024-02-16T04:26:06;100730.53;;;13.83;100.00
16525;BME280;8375;33.594;-117.718;2024-02-16T04:28:36;100736.59;;;13.84;100.00
16525;BME280;8375;33.594;-117.718;2024-02-16T04:31:05;100742.88;;;13.81;100.00
16525;BME280;8375;33.594;-117.718;2024-02-16T04:33:34;100737.41;;;13.84;100.00
16525;BME280;8375;33.594;-117.718;2024-02-16T04:36:06;100735.75;;;13.83;100.00
16525;BME280;8375;33.594;-117.718;2024-02-16T04:38:36;100733.84;;;13.85;100.00
16525;BME280;8375;33.594;-117.718;2024-02-16T04:41:05;100737.41;;;13.84;100.00
16525;BME280;8375;33.594;-117.718;2024-02-16T04:43:34;100729.72;;;13.83;100.00
16525;BME280;8375;33.594;-117.718;2024-02-16T04:46:15;100738.38;;;13.83;100.00
16525;BME280;8375;33.594;-117.718;2024-02-16T04:48:51;100736.84;;;13.81;100.00
16525;BME280;8375;33.594;-117.718;2024-02-16T04:51:21;100744.78;;;13.79;100.00
16525;BME280;8375;33.594;-117.718;2024-02-16T04:53:52;100730.09;;;13.78;100.00
16525;BME280;8375;33.594;-117.718;2024-02-16T04:56:21;100740.53;;;13.78;100.00
16525;BME280;8375;33.594;-117.718;2024-02-16T04:58:52;100731.88;;;13.77;100.00
16525;BME280;8375;33.594;-117.718;2024-02-16T05:01:21;100740.66;;;13.76;100.00
16525;BME280;8375;33.594;-117.718;2024-02-16T05:03:50;100741.47;;;13.77;100.00
16525;BME280;8375;33.594;-117.718;2024-02-16T05:06:19;100746.84;;;13.75;100.00
16525;BME280;8375;33.594;-117.718;2024-02-16T05:08:51;100755.47;;;13.76;100.00
16525;BME280;8375;33.594;-117.718;2024-02-16T05:11:20;100750.50;;;13.73;100.00
16525;BME280;8375;33.594;-117.718;2024-02-16T05:13:48;100751.59;;;13.70;100.00
16525;BME280;8375;33.594;-117.718;2024-02-16T05:16:17;100754.22;;;13.70;100.00
16525;BME280;8375;33.594;-117.718;2024-02-16T05:18:46;100748.84;;;13.72;100.00
16525;BME280;8375;33.594;-117.718;2024-02-16T05:21:14;100758.47;;;13.71;100.00
16525;BME280;8375;33.594;-117.718;2024-02-16T05:23:43;100754.56;;;13.66;100.00
16525;BME280;8375;33.594;-117.718;2024-02-16T05:26:13;100754.00;;;13.62;100.00
16525;BME280;8375;33.594;-117.718;2024-02-16T05:28:42;100755.09;;;13.48;100.00
16525;BME280;8375;33.594;-117.718;2024-02-16T05:31:14;100749.53;;;13.41;100.00
16525;BME280;8375;33.594;-117.718;2024-02-16T05:33:44;100754.41;;;13.46;100.00
16525;BME280;8375;33.594;-117.718;2024-02-16T05:36:16;100747.28;;;13.48;100.00
16525;BME280;8375;33.594;-117.718;2024-02-16T05:38:44;100749.66;;;13.51;100.00
16525;BME280;8375;33.594;-117.718;2024-02-16T05:41:16;100756.31;;;13.44;100.00
16525;BME280;8375;33.594;-117.718;2024-02-16T05:43:45;100760.56;;;13.45;100.00
16525;BME280;8375;33.594;-117.718;2024-02-16T05:46:15;100755.09;;;13.48;100.00
16525;BME280;8375;33.594;-117.718;2024-02-16T05:48:44;100754.28;;;13.25;100.00
16525;BME280;8375;33.594;-117.718;2024-02-16T05:51:14;100753.72;;;13.21;100.00
16525;BME280;8375;33.594;-117.718;2024-02-16T05:53:42;100757.75;;;13.25;100.00
16525;BME280;8375;33.594;-117.718;2024-02-16T05:56:11;100753.13;;;13.29;100.00
16525;BME280;8375;33.594;-117.718;2024-02-16T05:58:42;100755.41;;;13.11;100.00
16525;BME280;8375;33.594;-117.718;2024-02-16T06:01:10;100750.41;;;13.19;100.00
16525;BME280;8375;33.594;-117.718;2024-02-16T06:03:41;100746.25;;;13.28;100.00
16525;BME280;8375;33.594;-117.718;2024-02-16T06:06:10;100744.13;;;13.33;100.00
16525;BME280;8375;33.594;-117.718;2024-02-16T06:08:39;100755.81;;;13.39;100.00
16525;BME280;8375;33.594;-117.718;2024-02-16T06:11:08;100747.78;;;13.42;100.00
16525;BME280;8375;33.594;-117.718;2024-02-16T06:13:37;100748.47;;;13.44;100.00
16525;BME280;8375;33.594;-117.718;2024-02-16T06:16:08;100752.16;;;13.41;100.00
16525;BME280;8375;33.594;-117.718;2024-02-16T06:18:37;100743.97;;;13.46;100.00
16525;BME280;8375;33.594;-117.718;2024-02-16T06:21:05;100744.69;;;13.48;100.00
16525;BME280;8375;33.594;-117.718;2024-02-16T06:23:34;100749.91;;;13.48;100.00
16525;BME280;8375;33.594;-117.718;2024-02-16T06:26:05;100757.97;;;13.45;100.00
16525;BME280;8375;33.594;-117.718;2024-02-16T06:28:34;100751.09;;;13.44;100.00
16525;BME280;8375;33.594;-117.718;2024-02-16T06:31:02;100747.53;;;13.45;100.00
16525;BME280;8375;33.594;-117.718;2024-02-16T06:33:33;100750.03;;;13.46;100.00
16525;BME280;8375;33.594;-117.718;2024-02-16T06:36:02;100754.28;;;13.47;100.00
16525;BME280;8375;33.594;-117.718;2024-02-16T06:38:30;100750.84;;;13.47;100.00
16525;BME280;8375;33.594;-117.718;2024-02-16T06:40:59;100756.91;;;13.47;100.00
16525;BME280;8375;33.594;-117.718;2024-02-16T06:43:30;100748.25;;;13.47;100.00
16525;BME280;8375;33.594;-117.718;2024-02-16T06:45:58;100752.41;;;13.49;100.00
16525;BME280;8375;33.594;-117.718;2024-02-16T06:48:27;100748.00;;;13.50;100.00
16525;BME280;8375;33.594;-117.718;2024-02-16T06:50:58;100756.78;;;13.49;100.00
16525;BME280;8375;33.594;-117.718;2024-02-16T06:53:27;100751.31;;;13.41;100.00
16525;BME280;8375;33.594;-117.718;2024-02-16T06:55:56;100737.34;;;13.42;100.00
16525;BME280;8375;33.594;-117.718;2024-02-16T06:58:25;100734.75;;;13.30;100.00
16525;BME280;8375;33.594;-117.718;2024-02-16T07:00:53;100734.78;;;13.19;100.00
16525;BME280;8375;33.594;-117.718;2024-02-16T07:03:22;100727.31;;;13.26;100.00
16525;BME280;8375;33.594;-117.718;2024-02-16T07:05:51;100723.91;;;13.02;100.00
16525;BME280;8375;33.594;-117.718;2024-02-16T07:08:22;100722.25;;;12.90;100.00
16525;BME280;8375;33.594;-117.718;2024-02-16T07:10:53;100727.25;;;12.93;100.00
16525;BME280;8375;33.594;-117.718;2024-02-16T07:13:23;100723.78;;;12.93;100.00
16525;BME280;8375;33.594;-117.718;2024-02-16T07:15:51;100720.84;;;12.97;100.00
16525;BME280;8375;33.594;-117.718;2024-02-16T07:18:20;100726.38;;;13.04;100.00
16525;BME280;8375;33.594;-117.718;2024-02-16T07:20:49;100730.41;;;13.08;100.00
16525;BME280;8375;33.594;-117.718;2024-02-16T07:23:22;100742.13;;;13.14;100.00
16525;BME280;8375;33.594;-117.718;2024-02-16T07:25:51;100741.75;;;13.18;100.00
16525;BME280;8375;33.594;-117.718;2024-02-16T07:28:21;100743.16;;;13.23;100.00
16525;BME280;8375;33.594;-117.718;2024-02-16T07:30:50;100744.00;;;13.23;100.00
16525;BME280;8375;33.594;-117.718;2024-02-16T07:33:19;100749.31;;;13.21;100.00
16525;BME280;8375;33.594;-117.718;2024-02-16T07:35:51;100744.97;;;13.22;100.00
16525;BME280;8375;33.594;-117.718;2024-02-16T07:38:21;100742.47;;;13.20;100.00
16525;BME280;8375;33.594;-117.718;2024-02-16T07:40:50;100745.19;;;13.19;100.00
16525;BME280;8375;33.594;-117.718;2024-02-16T07:43:19;100746.16;;;13.18;100.00
16525;BME280;8375;33.594;-117.718;2024-02-16T07:45:48;100741.63;;;13.20;100.00
16525;BME280;8375;33.594;-117.718;2024-02-16T07:48:20;100740.94;;;13.18;100.00
16525;BME280;8375;33.594;-117.718;2024-02-16T07:50:49;100737.03;;;13.12;100.00
16525;BME280;8375;33.594;-117.718;2024-02-16T09:01:29;100712.91;;;12.87;100.00
16525;BME280;8375;33.594;-117.718;2024-02-16T09:03:58;100717.53;;;12.84;100.00
16525;BME280;8375;33.594;-117.718;2024-02-16T09:06:27;100726.41;;;12.81;100.00
16525;BME280;8375;33.594;-117.718;2024-02-16T09:08:56;100717.78;;;12.81;100.00
16525;BME280;8375;33.594;-117.718;2024-02-16T09:11:25;100717.78;;;12.81;100.00
16525;BME280;8375;33.594;-117.718;2024-02-16T09:13:54;100711.97;;;12.77;100.00
16525;BME280;8375;33.594;-117.718;2024-02-16T09:16:24;100714.69;;;12.75;100.00
16525;BME280;8375;33.594;-117.718;2024-02-16T09:18:53;100718.72;;;12.68;100.00
16525;BME280;8375;33.594;-117.718;2024-02-16T09:21:21;100708.78;;;12.62;100.00
16525;BME280;8375;33.594;-117.718;2024-02-16T09:23:53;100709.84;;;12.48;100.00
16525;BME280;8375;33.594;-117.718;2024-02-16T09:26:25;100708.56;;;12.54;100.00
16525;BME280;8375;33.594;-117.718;2024-02-16T09:28:57;100710.69;;;12.49;100.00
16525;BME280;8375;33.594;-117.718;2024-02-16T09:31:29;100711.38;;;12.39;100.00
16525;BME280;8375;33.594;-117.718;2024-02-16T09:33:57;100713.63;;;12.44;100.00
16525;BME280;8375;33.594;-117.718;2024-02-16T09:36:26;100702.41;;;12.43;100.00
16525;BME280;8375;33.594;-117.718;2024-02-16T09:38:55;100704.16;;;12.43;100.00
16525;BME280;8375;33.594;-117.718;2024-02-16T09:41:23;100718.50;;;12.49;100.00
16525;BME280;8375;33.594;-117.718;2024-02-16T09:43:52;100715.41;;;12.43;100.00
16525;BME280;8375;33.594;-117.718;2024-02-16T09:46:22;100717.19;;;12.43;100.00
16525;BME280;8375;33.594;-117.718;2024-02-16T09:48:53;100715.03;;;12.48;100.00
16525;BME280;8375;33.594;-117.718;2024-02-16T09:51:23;100715.88;;;12.37;100.00
16525;BME280;8375;33.594;-117.718;2024-02-16T09:53:51;100725.59;;;12.35;100.00
16525;BME280;8375;33.594;-117.718;2024-02-16T09:56:21;100724.41;;;12.39;100.00
16525;BME280;8375;33.594;-117.718;2024-02-16T09:58:51;100722.59;;;12.28;100.00
16525;BME280;8375;33.594;-117.718;2024-02-16T10:01:21;100723.53;;;12.27;100.00
16525;BME280;8375;33.594;-117.718;2024-02-16T10:03:52;100723.69;;;12.26;100.00
16525;BME280;8375;33.594;-117.718;2024-02-16T10:06:21;100725.81;;;12.21;100.00
16525;BME280;8375;33.594;-117.718;2024-02-16T10:08:50;100723.06;;;12.22;100.00
16525;BME280;8375;33.594;-117.718;2024-02-16T10:11:20;100721.78;;;12.28;100.00
16525;BME280;8375;33.594;-117.718;2024-02-16T10:13:58;100718.25;;;12.40;100.00
16525;BME280;8375;33.594;-117.718;2024-02-16T10:16:27;100713.16;;;12.39;100.00
16525;BME280;8375;33.594;-117.718;2024-02-16T10:19:07;100720.84;;;12.40;100.00
16525;BME280;8375;33.594;-117.718;2024-02-16T10:21:39;100719.66;;;12.33;100.00
16525;BME280;8375;33.594;-117.718;2024-02-16T10:24:08;100716.81;;;12.36;100.00
16525;BME280;8375;33.594;-117.718;2024-02-16T10:26:38;100714.31;;;12.23;100.00
16525;BME280;8375;33.594;-117.718;2024-02-16T10:29:09;100711.59;;;12.25;100.00
16525;BME280;8375;33.594;-117.718;2024-02-16T10:31:38;100700.09;;;12.16;100.00
16525;BME280;8375;33.594;-117.718;2024-02-16T10:34:08;100707.81;;;12.17;100.00
16525;BME280;8375;33.594;-117.718;2024-02-16T10:36:38;100695.59;;;12.07;100.00
16525;BME280;8375;33.594;-117.718;2024-02-16T10:39:08;100707.69;;;12.19;100.00
16525;BME280;8375;33.594;-117.718;2024-02-16T10:41:38;100699.53;;;12.24;100.00
16525;BME280;8375;33.594;-117.718;2024-02-16T10:44:08;100703.91;;;12.23;100.00
16525;BME280;8375;33.594;-117.718;2024-02-16T10:46:37;100702.59;;;12.17;100.00
16525;BME280;8375;33.594;-117.718;2024-02-16T10:49:10;100696.94;;;12.12;100.00
16525;BME280;8375;33.594;-117.718;2024-02-16T10:51:44;100699.06;;;12.18;100.00
16525;BME280;8375;33.594;-117.718;2024-02-16T10:54:22;100699.53;;;12.12;100.00
16525;BME280;8375;33.594;-117.718;2024-02-16T10:56:54;100700.72;;;12.20;100.00
16525;BME280;8375;33.594;-117.718;2024-02-16T10:59:40;100691.81;;;12.11;100.00
16525;BME280;8375;33.594;-117.718;2024-02-16T11:02:17;100692.19;;;12.06;100.00
16525;BME280;8375;33.594;-117.718;2024-02-16T11:05:08;100697.50;;;12.05;100.00
16525;BME280;8375;33.594;-117.718;2024-02-16T11:07:46;100696.91;;;12.01;100.00
16525;BME280;8375;33.594;-117.718;2024-02-16T11:10:17;100692.66;;;12.00;100.00
16525;BME280;8375;33.594;-117.718;2024-02-16T11:12:59;100689.09;;;12.01;100.00
16525;BME280;8375;33.594;-117.718;2024-02-16T11:15:32;100691.94;;;12.09;100.00
16525;BME280;8375;33.594;-117.718;2024-02-16T11:18:03;100688.03;;;12.15;100.00
16525;BME280;8375;33.594;-117.718;2024-02-16T11:20:41;100680.84;;;12.18;100.00
16525;BME280;8375;33.594;-117.718;2024-02-16T11:23:18;100672.81;;;12.22;100.00
16525;BME280;8375;33.594;-117.718;2024-02-16T11:26:00;100669.25;;;12.11;100.00
16525;BME280;8375;33.594;-117.718;2024-02-16T11:28:32;100663.97;;;11.88;100.00
16525;BME280;8375;33.594;-117.718;2024-02-16T11:31:09;100665.47;;;11.80;100.00
16525;BME280;8375;33.594;-117.718;2024-02-16T11:33:43;100660.16;;;11.70;100.00
16525;BME280;8375;33.594;-117.718;2024-02-16T11:39:31;100659.91;;;11.73;100.00
16525;BME280;8375;33.594;-117.718;2024-02-16T11:42:03;100653.97;;;11.59;100.00
16525;BME280;8375;33.594;-117.718;2024-02-16T11:44:33;100658.09;;;11.62;100.00
16525;BME280;8375;33.594;-117.718;2024-02-16T11:47:02;100655.75;;;11.70;100.00
16525;BME280;8375;33.594;-117.718;2024-02-16T11:49:33;100664.75;;;11.78;100.00
16525;BME280;8375;33.594;-117.718;2024-02-16T11:52:04;100666.78;;;11.74;100.00
16525;BME280;8375;33.594;-117.718;2024-02-16T11:54:34;100668.31;;;11.77;100.00
16525;BME280;8375;33.594;-117.718;2024-02-16T11:57:03;100671.50;;;11.69;100.00
16525;BME280;8375;33.594;-117.718;2024-02-16T11:59:32;100660.22;;;11.57;100.00
16525;BME280;8375;33.594;-117.718;2024-02-16T12:02:01;100655.13;;;11.55;100.00
16525;BME280;8375;33.594;-117.718;2024-02-16T12:04:30;100652.53;;;11.55;100.00
16525;BME280;8375;33.594;-117.718;2024-02-16T12:07:01;100658.94;;;11.63;100.00
16525;BME280;8375;33.594;-117.718;2024-02-16T12:09:30;100650.28;;;11.62;100.00
16525;BME280;8375;33.594;-117.718;2024-02-16T12:12:04;100650.44;;;11.61;100.00
16525;BME280;8375;33.594;-117.718;2024-02-16T12:14:35;100644.88;;;11.65;100.00
16525;BME280;8375;33.594;-117.718;2024-02-16T12:17:04;100656.16;;;11.77;100.00
16525;BME280;8375;33.594;-117.718;2024-02-16T12:19:35;100660.16;;;11.70;100.00
16525;BME280;8375;33.594;-117.718;2024-02-16T12:22:04;100660.88;;;11.72;100.00
16525;BME280;8375;33.594;-117.718;2024-02-16T12:24:33;100655.97;;;11.67;100.00
16525;BME280;8375;33.594;-117.718;2024-02-16T12:27:03;100659.34;;;11.45;100.00
16525;BME280;8375;33.594;-117.718;2024-02-16T12:29:32;100665.50;;;11.44;100.00
16525;BME280;8375;33.594;-117.718;2024-02-16T12:32:01;100676.34;;;11.38;100.00
16525;BME280;8375;33.594;-117.718;2024-02-16T12:34:29;100669.25;;;11.40;100.00
16525;BME280;8375;33.594;-117.718;2024-02-16T12:36:58;100678.28;;;11.47;100.00
16525;BME280;8375;33.594;-117.718;2024-02-16T12:39:26;100679.13;;;11.59;100.00
16525;BME280;8375;33.594;-117.718;2024-02-16T12:41:55;100676.66;;;11.57;100.00
16525;BME280;8375;33.594;-117.718;2024-02-16T12:44:25;100667.69;;;11.62;100.00
16525;BME280;8375;33.594;-117.718;2024-02-16T12:46:54;100660.25;;;11.68;100.00
16525;BME280;8375;33.594;-117.718;2024-02-16T12:49:23;100662.03;;;11.68;100.00
16525;BME280;8375;33.594;-117.718;2024-02-16T12:51:52;100655.53;;;11.73;100.00
16525;BME280;8375;33.594;-117.718;2024-02-16T12:54:21;100660.50;;;11.77;100.00
16525;BME280;8375;33.594;-117.718;2024-02-16T12:56:50;100660.41;;;11.78;100.00
16525;BME280;8375;33.594;-117.718;2024-02-16T12:59:19;100658.38;;;11.82;100.00
16525;BME280;8375;33.594;-117.718;2024-02-16T13:01:49;100656.72;;;11.81;100.00
16525;BME280;8375;33.594;-117.718;2024-02-16T13:04:18;100659.22;;;11.82;100.00
16525;BME280;8375;33.594;-117.718;2024-02-16T13:06:49;100668.47;;;11.86;100.00
16525;BME280;8375;33.594;-117.718;2024-02-16T13:09:19;100671.06;;;11.86;100.00
16525;BME280;8375;33.594;-117.718;2024-02-16T13:11:49;100669.19;;;11.88;100.00
16525;BME280;8375;33.594;-117.718;2024-02-16T13:14:26;100679.13;;;11.95;100.00
16525;BME280;8375;33.594;-117.718;2024-02-16T13:16:58;100668.47;;;11.98;100.00
16525;BME280;8375;33.594;-117.718;2024-02-16T13:19:26;100669.22;;;12.00;100.00
16525;BME280;8375;33.594;-117.718;2024-02-16T13:22:10;100679.63;;;12.00;100.00
16525;BME280;8375;33.594;-117.718;2024-02-16T13:24:39;100675.16;;;12.02;100.00
16525;BME280;8375;33.594;-117.718;2024-02-16T13:27:08;100675.16;;;12.02;100.00
16525;BME280;8375;33.594;-117.718;2024-02-16T13:29:39;100680.34;;;12.02;100.00
16525;BME280;8375;33.594;-117.718;2024-02-16T13:32:14;100679.28;;;12.05;100.00
16525;BME280;8375;33.594;-117.718;2024-02-16T13:34:47;100684.16;;;12.09;100.00
16525;BME280;8375;33.594;-117.718;2024-02-16T13:37:21;100678.94;;;12.09;100.00
16525;BME280;8375;33.594;-117.718;2024-02-16T13:40:04;100680.38;;;12.13;100.00
16525;BME280;8375;33.594;-117.718;2024-02-16T13:42:41;100688.16;;;12.13;100.00
16525;BME280;8375;33.594;-117.718;2024-02-16T13:45:14;100695.84;;;12.15;100.00
16525;BME280;8375;33.594;-117.718;2024-02-16T13:47:46;100698.34;;;12.16;100.00
16525;BME280;8375;33.594;-117.718;2024-02-16T13:50:17;100687.94;;;12.16;100.00
16525;BME280;8375;33.594;-117.718;2024-02-16T13:52:50;100688.75;;;12.17;100.00
16525;BME280;8375;33.594;-117.718;2024-02-16T13:55:23;100694.19;;;12.14;100.00